createdAt,value
2023-10-05T00:03:29.948Z,88
2023-10-05T00:06:31.160Z,88
2023-10-05T00:09:29.684Z,88
2023-10-05T00:12:29.671Z,88
2023-10-05T00:18:29.457Z,88
2023-10-05T01:43:43.024Z,90
2023-10-05T01:45:14.802Z,89
2023-10-05T01:46:46.611Z,90
2023-10-05T01:51:18.502Z,90
2023-10-05T01:52:50.310Z,90
2023-10-05T01:54:21.736Z,90
2023-10-05T01:55:53.245Z,90
2023-10-05T01:57:24.834Z,90
2023-10-05T01:58:56.703Z,90
2023-10-05T02:00:28.166Z,90
2023-10-05T02:02:29.607Z,90
2023-10-05T02:05:41.685Z,90
2023-10-05T02:08:31.232Z,90
2023-10-05T02:11:30.436Z,90
2023-10-05T02:14:31.968Z,90
2023-10-05T02:17:31.327Z,90
2023-10-05T02:20:32.347Z,91
2023-10-05T02:23:31.070Z,91
2023-10-05T02:26:31.197Z,91
2023-10-05T02:29:31.611Z,91
2023-10-05T02:32:30.906Z,91
2023-10-05T02:37:02.465Z,91
2023-10-05T02:38:34.077Z,91
2023-10-05T02:41:31.483Z,91
2023-10-05T02:44:31.986Z,91
2023-10-05T02:47:33.175Z,91
2023-10-05T02:50:31.852Z,91
2023-10-05T02:53:31.837Z,91
2023-10-05T02:56:32.310Z,91
2023-10-05T02:59:27.590Z,91
2023-10-05T03:02:28.450Z,92
2023-10-05T03:05:28.710Z,91
2023-10-05T03:08:29.822Z,91
2023-10-05T03:11:28.544Z,91
2023-10-05T03:14:28.778Z,91
2023-10-05T03:17:29.333Z,91
2023-10-05T03:20:28.407Z,91
2023-10-05T03:23:29.361Z,91
2023-10-05T03:26:29.468Z,91
2023-10-05T03:29:30.625Z,91
2023-10-05T03:32:32.178Z,91
2023-10-05T03:35:29.667Z,91
2023-10-05T03:38:30.849Z,91
2023-10-05T03:41:30.180Z,91
2023-10-05T03:44:30.439Z,91
2023-10-05T03:47:31.757Z,91
2023-10-05T03:50:30.526Z,91
2023-10-05T03:53:30.753Z,91
2023-10-05T03:56:31.243Z,91
2023-10-05T03:59:26.577Z,91
2023-10-05T04:02:27.495Z,91
2023-10-05T04:05:27.843Z,91
2023-10-05T04:08:28.945Z,91
2023-10-05T04:11:27.296Z,91
2023-10-05T04:14:27.376Z,91
2023-10-05T04:17:27.846Z,91
2023-10-05T04:20:27.129Z,91
2023-10-05T04:23:28.252Z,91
2023-10-05T04:26:28.270Z,91
2023-10-05T04:30:59.898Z,92
2023-10-05T04:32:31.560Z,92
2023-10-05T04:35:29.798Z,92
2023-10-05T04:38:28.527Z,92
2023-10-05T04:41:29.839Z,92
2023-10-05T04:44:29.195Z,92
2023-10-05T04:47:28.536Z,92
2023-10-05T04:50:29.401Z,92
2023-10-05T04:53:29.452Z,92
2023-10-05T04:56:30.699Z,92
2023-10-05T04:59:25.441Z,92
2023-10-05T05:02:25.540Z,92
2023-10-05T05:05:25.988Z,92
2023-10-05T05:08:25.334Z,92
2023-10-05T05:11:26.068Z,92
2023-10-05T05:14:26.320Z,92
2023-10-05T05:17:27.637Z,92
2023-10-05T05:20:26.435Z,93
2023-10-05T05:23:26.335Z,93
2023-10-05T05:28:00.243Z,93
2023-10-05T05:29:31.686Z,93
2023-10-05T05:32:27.369Z,93
2023-10-05T05:35:26.473Z,93
2023-10-05T05:38:27.504Z,93
2023-10-05T05:41:27.632Z,93
2023-10-05T05:44:28.707Z,93
2023-10-05T05:47:27.620Z,93
2023-10-05T05:50:27.514Z,92
2023-10-05T05:53:28.096Z,92
2023-10-05T05:56:27.254Z,92
2023-10-05T05:59:23.444Z,92
2023-10-05T06:02:23.580Z,92
2023-10-05T06:05:24.612Z,92
2023-10-05T06:08:23.344Z,92
2023-10-05T06:11:23.467Z,92
2023-10-05T06:14:24.016Z,92
2023-10-05T06:17:23.521Z,92
2023-10-05T06:20:24.219Z,91
2023-10-05T06:23:25.910Z,91
2023-10-05T06:26:25.262Z,91
2023-10-05T06:29:25.285Z,91
2023-10-05T06:32:25.822Z,91
2023-10-05T06:35:25.135Z,91
2023-10-05T06:38:26.047Z,91
2023-10-05T06:41:26.258Z,91
2023-10-05T06:44:27.422Z,91
2023-10-05T06:47:26.460Z,90
2023-10-05T06:50:26.303Z,91
2023-10-05T06:53:27.044Z,91
2023-10-05T06:56:26.140Z,90
2023-10-05T06:59:23.116Z,89
2023-10-05T07:02:27.354Z,89
2023-10-05T07:05:24.587Z,89
2023-10-05T07:08:23.462Z,88
2023-10-05T07:11:23.580Z,87
2023-10-05T07:14:25.878Z,87
2023-10-05T07:17:23.028Z,87
2023-10-05T07:20:24.865Z,87
2023-10-05T07:23:25.393Z,87
2023-10-05T07:26:24.143Z,87
2023-10-05T07:29:43.122Z,88
2023-10-05T07:32:24.939Z,87
2023-10-05T07:35:24.192Z,87
2023-10-05T07:38:25.023Z,87
2023-10-05T07:41:25.416Z,87
2023-10-05T07:44:26.555Z,87
2023-10-05T07:47:25.332Z,87
2023-10-05T07:50:25.358Z,88
2023-10-05T07:53:25.745Z,88
2023-10-05T07:56:24.899Z,88
2023-10-05T07:59:22.018Z,88
2023-10-05T08:02:22.367Z,88
2023-10-05T08:05:23.328Z,88
2023-10-05T08:08:22.074Z,88
2023-10-05T08:11:22.099Z,88
2023-10-05T08:14:22.475Z,89
2023-10-05T08:17:24.034Z,90
2023-10-05T08:20:26.749Z,90
2023-10-05T08:23:23.465Z,90
2023-10-05T08:26:22.158Z,90
2023-10-05T08:29:22.282Z,90
2023-10-05T08:32:22.884Z,91
2023-10-05T08:35:22.054Z,91
2023-10-05T08:38:22.884Z,91
2023-10-05T08:41:23.133Z,91
2023-10-05T08:44:24.236Z,91
2023-10-05T08:47:23.057Z,91
2023-10-05T08:50:23.039Z,91
2023-10-05T08:53:23.441Z,92
2023-10-05T08:56:22.641Z,92
2023-10-05T08:59:19.503Z,92
2023-10-05T09:02:20.392Z,93
2023-10-05T09:05:20.856Z,93
2023-10-05T09:08:19.601Z,94
2023-10-05T09:11:19.710Z,94
2023-10-05T09:14:22.373Z,94
2023-10-05T09:17:21.137Z,95
2023-10-05T09:20:21.663Z,95
2023-10-05T09:23:21.384Z,95
2023-10-05T09:26:19.929Z,95
2023-10-05T09:29:19.985Z,96
2023-10-05T09:32:20.530Z,96
2023-10-05T09:35:19.586Z,96
2023-10-05T09:38:20.419Z,96
2023-10-05T09:41:20.727Z,96
2023-10-05T09:44:22.318Z,97
2023-10-05T09:47:20.627Z,96
2023-10-05T09:50:46.397Z,96
2023-10-05T09:53:20.874Z,96
2023-10-05T09:59:19.240Z,95
2023-10-05T10:02:20.447Z,95
2023-10-05T10:05:19.245Z,95
2023-10-05T10:08:19.403Z,95
2023-10-05T10:11:20.881Z,94
2023-10-05T10:14:21.494Z,92
2023-10-05T10:17:20.377Z,90
2023-10-05T10:20:19.668Z,90
2023-10-05T10:23:20.684Z,90
2023-10-05T10:26:21.202Z,89
2023-10-05T10:29:25.079Z,89
2023-10-05T10:32:22.323Z,89
2023-10-05T10:35:22.416Z,89
2023-10-05T10:38:23.508Z,90
2023-10-05T10:41:22.311Z,90
2023-10-05T10:44:22.932Z,91
2023-10-05T10:47:23.793Z,91
2023-10-05T10:50:22.246Z,90
2023-10-05T10:53:22.354Z,90
2023-10-05T10:56:22.597Z,91
2023-10-05T10:59:18.844Z,92
2023-10-05T11:02:19.733Z,93
2023-10-05T11:05:21.185Z,94
2023-10-05T11:08:27.806Z,95
2023-10-05T11:11:21.036Z,95
2023-10-05T11:14:22.231Z,95
2023-10-05T11:17:26.166Z,96
2023-10-05T11:20:21.329Z,96
2023-10-05T11:23:27.372Z,96
2023-10-05T11:26:23.819Z,96
2023-10-05T11:29:21.628Z,96
2023-10-05T11:33:01.826Z,96
2023-10-05T11:36:36.705Z,97
2023-10-05T11:38:22.121Z,97
2023-10-05T11:41:21.746Z,97
2023-10-05T11:44:21.899Z,97
2023-10-05T11:47:22.783Z,97
2023-10-05T11:50:22.926Z,97
2023-10-05T11:53:24.034Z,97
2023-10-05T11:56:22.861Z,97
2023-10-05T11:59:24.400Z,96
2023-10-05T12:02:26.466Z,97
2023-10-05T12:05:19.628Z,97
2023-10-05T12:08:20.626Z,97
2023-10-05T12:14:19.291Z,97
2023-10-05T12:17:20.472Z,97
2023-10-05T12:20:19.064Z,97
2023-10-05T12:23:19.118Z,97
2023-10-05T12:29:18.659Z,96
2023-10-05T12:32:19.819Z,96
2023-10-05T12:35:20.317Z,95
2023-10-05T12:38:21.025Z,95
2023-10-05T12:44:21.530Z,96
2023-10-05T12:47:22.525Z,96
2023-10-05T12:50:21.366Z,95
2023-10-05T12:53:21.529Z,96
2023-10-05T12:56:22.625Z,95
2023-10-05T12:59:16.383Z,95
2023-10-05T13:02:16.549Z,96
2023-10-05T13:05:34.895Z,96
2023-10-05T13:08:16.567Z,95
2023-10-05T13:11:18.220Z,95
2023-10-05T13:14:17.758Z,95
2023-10-05T13:17:19.038Z,95
2023-10-05T13:20:16.644Z,95
2023-10-05T13:23:18.329Z,95
2023-10-05T13:26:16.315Z,95
2023-10-05T13:29:18.427Z,95
2023-10-05T13:32:17.623Z,96
2023-10-05T13:35:17.981Z,96
2023-10-05T13:38:18.511Z,96
2023-10-05T13:41:20.353Z,96
2023-10-05T13:44:20.111Z,96
2023-10-05T13:47:19.339Z,96
2023-10-05T13:50:19.015Z,96
2023-10-05T13:53:20.059Z,96
2023-10-05T13:56:18.808Z,96
2023-10-05T13:59:18.947Z,96
2023-10-05T14:02:17.886Z,96
2023-10-05T14:05:18.014Z,96
2023-10-05T14:08:17.361Z,97
2023-10-05T14:11:18.508Z,97
2023-10-05T14:14:17.309Z,97
2023-10-05T14:17:17.155Z,97
2023-10-05T14:20:17.879Z,97
2023-10-05T14:23:16.907Z,96
2023-10-05T14:26:17.965Z,97
2023-10-05T14:29:18.384Z,97
2023-10-05T14:32:18.561Z,97
2023-10-05T14:35:19.369Z,96
2023-10-05T14:38:19.555Z,96
2023-10-05T14:41:20.680Z,96
2023-10-05T14:44:19.409Z,95
2023-10-05T14:47:19.665Z,95
2023-10-05T14:50:20.632Z,95
2023-10-05T14:53:19.425Z,94
2023-10-05T14:56:19.728Z,93
2023-10-05T14:59:16.877Z,93
2023-10-05T15:02:16.217Z,93
2023-10-05T15:05:16.692Z,93
2023-10-05T15:08:18.996Z,93
2023-10-05T15:11:16.743Z,93
2023-10-05T15:14:16.593Z,93
2023-10-05T15:17:17.197Z,93
2023-10-05T15:20:16.230Z,93
2023-10-05T15:23:17.222Z,93
2023-10-05T15:26:17.616Z,93
2023-10-05T15:29:17.887Z,93
2023-10-05T15:32:18.540Z,93
2023-10-05T15:35:18.873Z,94
2023-10-05T15:38:19.909Z,94
2023-10-05T15:41:18.608Z,94
2023-10-05T15:44:18.824Z,94
2023-10-05T15:47:20.208Z,94
2023-10-05T15:50:18.920Z,94
2023-10-05T15:53:18.987Z,94
2023-10-05T15:56:19.400Z,94
2023-10-05T15:59:15.685Z,94
2023-10-05T16:02:16.651Z,95
2023-10-05T16:05:18.296Z,95
2023-10-05T16:08:21.986Z,95
2023-10-05T16:11:17.929Z,95
2023-10-05T16:14:18.365Z,95
2023-10-05T16:17:17.724Z,95
2023-10-05T16:20:18.511Z,95
2023-10-05T16:23:18.710Z,95
2023-10-05T16:26:18.856Z,95
2023-10-05T16:29:19.638Z,95
2023-10-05T16:32:19.878Z,95
2023-10-05T16:35:21.002Z,95
2023-10-05T16:38:19.786Z,96
2023-10-05T16:41:19.952Z,96
2023-10-05T16:44:21.250Z,96
2023-10-05T16:47:20.088Z,96
2023-10-05T16:50:19.935Z,96
2023-10-05T16:53:20.405Z,96
2023-10-05T16:56:19.625Z,96
2023-10-05T16:59:16.598Z,96
2023-10-05T17:02:17.006Z,96
2023-10-05T17:05:16.412Z,96
2023-10-05T17:08:16.512Z,96
2023-10-05T17:11:16.847Z,96
2023-10-05T17:14:16.135Z,96
2023-10-05T17:17:17.143Z,96
2023-10-05T17:20:17.392Z,97
2023-10-05T17:23:17.623Z,97
2023-10-05T17:26:18.537Z,97
2023-10-05T17:29:18.817Z,97
2023-10-05T17:32:20.424Z,97
2023-10-05T17:35:18.833Z,97
2023-10-05T17:38:19.033Z,97
2023-10-05T17:41:20.256Z,97
2023-10-05T17:44:18.885Z,97
2023-10-05T17:47:18.904Z,97
2023-10-05T17:50:19.364Z,97
2023-10-05T17:53:23.555Z,97
2023-10-05T17:56:19.731Z,97
2023-10-05T17:59:17.964Z,97
2023-10-05T18:02:17.037Z,98
2023-10-05T18:05:17.719Z,98
2023-10-05T18:08:17.988Z,98
2023-10-05T18:11:17.092Z,98
2023-10-05T18:14:18.173Z,98
2023-10-05T18:17:18.347Z,98
2023-10-05T18:20:18.531Z,98
2023-10-05T18:23:19.499Z,98
2023-10-05T18:26:19.737Z,98
2023-10-05T18:29:21.338Z,98
2023-10-05T18:32:19.849Z,98
2023-10-05T18:35:19.860Z,98
2023-10-05T18:38:20.981Z,98
2023-10-05T18:41:19.645Z,98
2023-10-05T18:44:19.578Z,98
2023-10-05T18:47:19.799Z,98
2023-10-05T18:50:18.984Z,98
2023-10-05T18:53:19.975Z,98
2023-10-05T18:56:20.519Z,98
2023-10-05T18:59:16.744Z,98
2023-10-05T19:02:17.781Z,98
2023-10-05T19:05:18.425Z,98
2023-10-05T19:08:17.731Z,98
2023-10-05T19:11:17.667Z,99
2023-10-05T19:14:18.187Z,99
2023-10-05T19:17:18.491Z,99
2023-10-05T19:20:19.219Z,98
2023-10-05T19:23:19.371Z,98
2023-10-05T19:26:20.510Z,99
2023-10-05T19:29:19.321Z,99
2023-10-05T19:32:19.558Z,99
2023-10-05T19:35:20.681Z,99
2023-10-05T19:38:19.305Z,99
2023-10-05T19:41:19.338Z,99
2023-10-05T19:44:47.233Z,99
2023-10-05T19:47:19.824Z,99
2023-10-05T19:50:20.829Z,99
2023-10-05T19:53:20.057Z,99
2023-10-05T19:56:30.500Z,99
2023-10-05T19:59:17.459Z,99
2023-10-05T20:02:17.789Z,99
2023-10-05T20:05:18.161Z,99
2023-10-05T20:08:18.598Z,99
2023-10-05T20:11:17.861Z,99
2023-10-05T20:14:18.908Z,99
2023-10-05T20:17:19.460Z,99
2023-10-05T20:20:19.463Z,99
2023-10-05T20:23:20.255Z,99
2023-10-05T20:26:20.524Z,99
2023-10-05T20:29:21.892Z,99
2023-10-05T20:32:20.619Z,99
2023-10-05T20:35:20.652Z,99
2023-10-05T20:38:21.852Z,99
2023-10-05T20:41:20.574Z,99
2023-10-05T20:44:20.619Z,99
2023-10-05T20:47:21.158Z,99
2023-10-05T20:50:20.301Z,99
2023-10-05T20:53:21.804Z,99
2023-10-05T20:56:21.545Z,99
2023-10-05T20:59:15.853Z,99
2023-10-05T21:02:16.739Z,99
2023-10-05T21:05:17.719Z,99
2023-10-05T21:08:16.890Z,99
2023-10-05T21:11:16.918Z,99
2023-10-05T21:14:17.439Z,99
2023-10-05T21:17:17.854Z,99
2023-10-05T21:20:18.535Z,99
2023-10-05T21:23:18.869Z,99
2023-10-05T21:26:20.121Z,99
2023-10-05T21:29:18.916Z,99
2023-10-05T21:32:18.967Z,99
2023-10-05T21:35:20.301Z,99
2023-10-05T21:38:18.943Z,99
2023-10-05T21:41:19.015Z,99
2023-10-05T21:44:19.455Z,99
2023-10-05T21:47:18.758Z,99
2023-10-05T21:50:19.729Z,99
2023-10-05T21:53:20.422Z,99
2023-10-05T21:56:21.855Z,99
2023-10-05T21:59:16.817Z,99
2023-10-05T22:02:18.661Z,99
2023-10-05T22:05:17.493Z,99
2023-10-05T22:08:17.674Z,99
2023-10-05T22:11:18.887Z,99
2023-10-05T22:14:17.586Z,99
2023-10-05T22:17:17.838Z,99
2023-10-05T22:20:18.171Z,99
2023-10-05T22:23:17.353Z,99
2023-10-05T22:26:18.394Z,99
2023-10-05T22:29:18.815Z,99
2023-10-05T22:32:18.940Z,99
2023-10-05T22:35:19.801Z,99
2023-10-05T22:38:26.474Z,99
2023-10-05T22:41:21.221Z,99
2023-10-05T22:44:20.253Z,99
2023-10-05T22:47:20.549Z,99
2023-10-05T22:53:20.583Z,99
2023-10-05T22:56:20.712Z,99
2023-10-05T22:59:15.108Z,99
2023-10-05T23:02:15.030Z,99
2023-10-05T23:08:16.114Z,98
2023-10-05T23:11:14.791Z,98
2023-10-05T23:14:14.839Z,98
2023-10-05T23:17:15.409Z,98
2023-10-05T23:23:14.692Z,98
2023-10-05T23:26:14.986Z,98
2023-10-05T23:29:15.334Z,98
2023-10-05T23:32:16.539Z,98
2023-10-05T23:38:17.932Z,98
2023-10-05T23:41:16.893Z,98
2023-10-05T23:44:17.079Z,98
2023-10-05T23:47:37.394Z,98
2023-10-05T23:53:16.928Z,98
2023-10-05T23:56:17.397Z,98
2023-10-05T23:59:14.709Z,98
